Аэропорт: Шереметьево. Москва

ICAO: UUEE

METAR:
2018/11/19 10:00
UUEE 191000Z 01004MPS 9999 OVC007 01/01 Q1030 R06C/290045 R06R/290051 NOSIG
METAR:
2018/11/19 09:21
TAF UUEE 190759Z 1909/2009 36004MPS 9000 OVC006 TX02/1912Z TNM04/2003Z 
      TEMPO 1909/1918 -SN OVC004 
      TEMPO 1918/2006 3100 -SN BR SCT003 OVC006